sensor_id;sensor_type;location;lat;lon;timestamp;pressure;altitude;pressure_sealevel;temperature;humidity
23616;BME280;11985;49.404;7.734;2023-01-28T00:04:56;97939.50;;;-0.24;100.00
23616;BME280;11985;49.404;7.734;2023-01-28T00:09:59;97950.69;;;-0.23;100.00
23616;BME280;11985;49.404;7.734;2023-01-28T00:15:00;97950.44;;;-0.20;100.00
23616;BME280;11985;49.404;7.734;2023-01-28T00:20:02;97944.19;;;-0.18;100.00
23616;BME280;11985;49.404;7.734;2023-01-28T00:25:05;97944.47;;;-0.21;100.00
23616;BME280;11985;49.404;7.734;2023-01-28T00:30:08;97941.16;;;-0.23;100.00
23616;BME280;11985;49.404;7.734;2023-01-28T00:35:10;97937.63;;;-0.22;100.00
23616;BME280;11985;49.404;7.734;2023-01-28T00:40:13;97939.50;;;-0.24;100.00
23616;BME280;11985;49.404;7.734;2023-01-28T00:45:15;97937.03;;;-0.25;100.00
23616;BME280;11985;49.404;7.734;2023-01-28T00:50:17;97941.41;;;-0.26;100.00
23616;BME280;11985;49.404;7.734;2023-01-28T00:55:21;97936.47;;;-0.29;100.00
23616;BME280;11985;49.404;7.734;2023-01-28T01:00:23;97932.09;;;-0.29;100.00
23616;BME280;11985;49.404;7.734;2023-01-28T01:05:26;97937.03;;;-0.25;100.00
23616;BME280;11985;49.404;7.734;2023-01-28T01:10:30;97948.09;;;-0.23;100.00
23616;BME280;11985;49.404;7.734;2023-01-28T01:15:32;97940.59;;;-0.27;100.00
23616;BME280;11985;49.404;7.734;2023-01-28T01:20:33;97941.63;;;-0.29;100.00
23616;BME280;11985;49.404;7.734;2023-01-28T01:25:43;97944.94;;;-0.27;100.00
23616;BME280;11985;49.404;7.734;2023-01-28T01:30:44;97951.03;;;-0.28;100.00
23616;BME280;11985;49.404;7.734;2023-01-28T01:35:52;97951.97;;;-0.29;100.00
23616;BME280;11985;49.404;7.734;2023-01-28T01:40:56;97953.63;;;-0.28;100.00
23616;BME280;11985;49.404;7.734;2023-01-28T01:45:59;97955.28;;;-0.27;100.00
23616;BME280;11985;49.404;7.734;2023-01-28T01:51:03;97959.66;;;-0.28;100.00
23616;BME280;11985;49.404;7.734;2023-01-28T01:56:14;97960.69;;;-0.30;100.00
23616;BME280;11985;49.404;7.734;2023-01-28T02:01:19;97968.25;;;-0.27;100.00
23616;BME280;11985;49.404;7.734;2023-01-28T02:06:22;97977.66;;;-0.26;100.00
23616;BME280;11985;49.404;7.734;2023-01-28T02:11:28;97970.56;;;-0.24;100.00
23616;BME280;11985;49.404;7.734;2023-01-28T02:16:31;97970.81;;;-0.27;100.00
23616;BME280;11985;49.404;7.734;2023-01-28T02:27:15;97969.75;;;-0.24;100.00
23616;BME280;11985;49.404;7.734;2023-01-28T02:32:24;97971.53;;;-0.25;100.00
23616;BME280;11985;49.404;7.734;2023-01-28T02:37:33;97973.50;;;-0.29;100.00
23616;BME280;11985;49.404;7.734;2023-01-28T02:42:39;97965.88;;;-0.30;100.00
23616;BME280;11985;49.404;7.734;2023-01-28T02:47:42;97962.25;;;-0.28;100.00
23616;BME280;11985;49.404;7.734;2023-01-28T02:53:07;97962.13;;;-0.26;100.00
23616;BME280;11985;49.404;7.734;2023-01-28T02:58:34;97964.94;;;-0.29;100.00
23616;BME280;11985;49.404;7.734;2023-01-28T03:03:44;97960.69;;;-0.30;100.00
23616;BME280;11985;49.404;7.734;2023-01-28T03:08:51;97964.47;;;-0.34;100.00
23616;BME280;11985;49.404;7.734;2023-01-28T03:14:12;97984.25;;;-0.33;100.00
23616;BME280;11985;49.404;7.734;2023-01-28T03:19:33;97980.25;;;-0.37;100.00
23616;BME280;11985;49.404;7.734;2023-01-28T03:24:53;97983.06;;;-0.40;100.00
23616;BME280;11985;49.404;7.734;2023-01-28T03:30:14;97995.31;;;-0.42;100.00
23616;BME280;11985;49.404;7.734;2023-01-28T03:35:36;97991.31;;;-0.46;100.00
23616;BME280;11985;49.404;7.734;2023-01-28T03:40:58;97994.63;;;-0.44;100.00
23616;BME280;11985;49.404;7.734;2023-01-28T03:45:59;97991.31;;;-0.46;100.00
23616;BME280;11985;49.404;7.734;2023-01-28T03:51:03;97995.78;;;-0.48;100.00
23616;BME280;11985;49.404;7.734;2023-01-28T03:56:05;97997.31;;;-0.46;100.00
23616;BME280;11985;49.404;7.734;2023-01-28T04:01:08;98003.28;;;-0.45;100.00
23616;BME280;11985;49.404;7.734;2023-01-28T04:06:11;97999.78;;;-0.44;100.00
23616;BME280;11985;49.404;7.734;2023-01-28T04:11:12;98000.00;;;-0.47;100.00
23616;BME280;11985;49.404;7.734;2023-01-28T04:16:18;98013.09;;;-0.49;100.00
23616;BME280;11985;49.404;7.734;2023-01-28T04:21:21;98009.53;;;-0.48;100.00
23616;BME280;11985;49.404;7.734;2023-01-28T04:26:23;98010.97;;;-0.44;100.00
23616;BME280;11985;49.404;7.734;2023-01-28T04:31:25;98008.25;;;-0.42;100.00
23616;BME280;11985;49.404;7.734;2023-01-28T04:36:28;98008.25;;;-0.42;100.00
23616;BME280;11985;49.404;7.734;2023-01-28T04:41:29;98013.44;;;-0.42;100.00
23616;BME280;11985;49.404;7.734;2023-01-28T04:46:31;98024.59;;;-0.42;100.00
23616;BME280;11985;49.404;7.734;2023-01-28T04:51:34;98026.25;;;-0.41;100.00
23616;BME280;11985;49.404;7.734;2023-01-28T04:56:35;98027.78;;;-0.27;100.00
23616;BME280;11985;49.404;7.734;2023-01-28T05:01:37;98027.50;;;-0.13;100.00
23616;BME280;11985;49.404;7.734;2023-01-28T05:06:40;98031.84;;;-0.02;100.00
23616;BME280;11985;49.404;7.734;2023-01-28T05:11:41;98026.19;;;0.04;100.00
23616;BME280;11985;49.404;7.734;2023-01-28T05:16:43;98034.09;;;0.03;100.00
23616;BME280;11985;49.404;7.734;2023-01-28T05:21:46;98034.44;;;-0.02;100.00
23616;BME280;11985;49.404;7.734;2023-01-28T05:26:47;98035.97;;;0.01;100.00
23616;BME280;11985;49.404;7.734;2023-01-28T05:31:49;98045.16;;;-0.07;100.00
23616;BME280;11985;49.404;7.734;2023-01-28T05:36:52;98050.56;;;0.02;100.00
23616;BME280;11985;49.404;7.734;2023-01-28T05:41:53;98055.72;;;0.13;100.00
23616;BME280;11985;49.404;7.734;2023-01-28T05:46:55;98054.88;;;0.23;100.00
23616;BME280;11985;49.404;7.734;2023-01-28T05:51:58;98060.44;;;0.19;100.00
23616;BME280;11985;49.404;7.734;2023-01-28T05:57:00;98064.44;;;0.12;100.00
23616;BME280;11985;49.404;7.734;2023-01-28T06:02:02;98064.44;;;0.12;100.00
23616;BME280;11985;49.404;7.734;2023-01-28T06:07:05;98076.69;;;0.10;100.00
23616;BME280;11985;49.404;7.734;2023-01-28T06:12:07;98084.94;;;0.04;100.00
23616;BME280;11985;49.404;7.734;2023-01-28T06:17:08;98076.22;;;-0.07;100.00
23616;BME280;11985;49.404;7.734;2023-01-28T06:22:11;98083.50;;;-0.01;100.00
23616;BME280;11985;49.404;7.734;2023-01-28T06:27:12;98092.22;;;0.10;100.00
23616;BME280;11985;49.404;7.734;2023-01-28T06:32:14;98096.00;;;0.17;100.00
23616;BME280;11985;49.404;7.734;2023-01-28T06:37:17;98113.66;;;0.23;100.00
23616;BME280;11985;49.404;7.734;2023-01-28T06:42:19;98117.41;;;0.19;100.00
23616;BME280;11985;49.404;7.734;2023-01-28T06:47:20;98117.53;;;0.29;100.00
23616;BME280;11985;49.404;7.734;2023-01-28T06:52:23;98121.91;;;0.28;100.00
23616;BME280;11985;49.404;7.734;2023-01-28T06:57:25;98131.88;;;0.21;100.00
23616;BME280;11985;49.404;7.734;2023-01-28T07:02:26;98133.44;;;0.13;100.00
23616;BME280;11985;49.404;7.734;2023-01-28T07:07:29;98136.59;;;0.05;100.00
23616;BME280;11985;49.404;7.734;2023-01-28T07:12:30;98127.53;;;-0.01;100.00
23616;BME280;11985;49.404;7.734;2023-01-28T07:17:32;98136.25;;;-0.02;100.00
23616;BME280;11985;49.404;7.734;2023-01-28T07:22:35;98139.44;;;0.02;100.00
23616;BME280;11985;49.404;7.734;2023-01-28T07:27:38;98129.56;;;0.07;100.00
23616;BME280;11985;49.404;7.734;2023-01-28T07:32:40;98136.03;;;0.13;100.00
23616;BME280;11985;49.404;7.734;2023-01-28T07:37:50;98132.38;;;0.15;100.00
23616;BME280;11985;49.404;7.734;2023-01-28T07:42:52;98133.56;;;0.22;100.00
23616;BME280;11985;49.404;7.734;2023-01-28T07:47:55;98142.63;;;0.17;100.00
23616;BME280;11985;49.404;7.734;2023-01-28T07:52:58;98150.03;;;0.10;100.00
23616;BME280;11985;49.404;7.734;2023-01-28T07:58:00;98156.97;;;-0.02;100.00
23616;BME280;11985;49.404;7.734;2023-01-28T08:03:04;98152.88;;;-0.15;100.00
23616;BME280;11985;49.404;7.734;2023-01-28T08:08:09;98165.00;;;-0.16;100.00
23616;BME280;11985;49.404;7.734;2023-01-28T08:13:12;98162.03;;;-0.11;100.00
23616;BME280;11985;49.404;7.734;2023-01-28T08:18:15;98169.56;;;-0.08;100.00
23616;BME280;11985;49.404;7.734;2023-01-28T08:23:18;98176.88;;;-0.02;100.00
23616;BME280;11985;49.404;7.734;2023-01-28T08:28:20;98177.47;;;0.13;100.00
23616;BME280;11985;49.404;7.734;2023-01-28T08:33:22;98179.81;;;0.05;100.00
23616;BME280;11985;49.404;7.734;2023-01-28T08:38:25;98183.22;;;0.05;100.00
23616;BME280;11985;49.404;7.734;2023-01-28T08:43:26;98179.94;;;0.03;100.00
23616;BME280;11985;49.404;7.734;2023-01-28T08:48:28;98183.13;;;0.07;100.00
23616;BME280;11985;49.404;7.734;2023-01-28T08:53:31;98177.81;;;0.08;100.00
23616;BME280;11985;49.404;7.734;2023-01-28T08:58:32;98179.81;;;0.05;100.00
23616;BME280;11985;49.404;7.734;2023-01-28T09:03:34;98179.34;;;-0.01;100.00
23616;BME280;11985;49.404;7.734;2023-01-28T09:08:37;98178.16;;;-0.08;100.00
23616;BME280;11985;49.404;7.734;2023-01-28T09:13:39;98184.31;;;0.03;100.00
23616;BME280;11985;49.404;7.734;2023-01-28T09:18:40;98181.22;;;-0.03;100.00
23616;BME280;11985;49.404;7.734;2023-01-28T09:23:43;98186.19;;;-0.11;100.00
23616;BME280;11985;49.404;7.734;2023-01-28T09:28:46;98195.34;;;-0.07;100.00
23616;BME280;11985;49.404;7.734;2023-01-28T09:33:47;98204.81;;;0.06;100.00
23616;BME280;11985;49.404;7.734;2023-01-28T09:38:57;98202.66;;;0.11;100.00
23616;BME280;11985;49.404;7.734;2023-01-28T09:44:05;98211.38;;;0.10;100.00
23616;BME280;11985;49.404;7.734;2023-01-28T09:49:15;98217.03;;;0.26;100.00
23616;BME280;11985;49.404;7.734;2023-01-28T09:54:28;98219.63;;;0.37;100.00
23616;BME280;11985;49.404;7.734;2023-01-28T09:59:32;98214.91;;;0.31;100.00
23616;BME280;11985;49.404;7.734;2023-01-28T10:04:47;98219.75;;;0.24;100.00
23616;BME280;11985;49.404;7.734;2023-01-28T10:10:05;98215.63;;;0.22;100.00
23616;BME280;11985;49.404;7.734;2023-01-28T10:20:42;98227.53;;;0.24;100.00
23616;BME280;11985;49.404;7.734;2023-01-28T10:25:47;98226.34;;;0.29;100.00
23616;BME280;11985;49.404;7.734;2023-01-28T10:30:50;98231.63;;;0.38;100.00
23616;BME280;11985;49.404;7.734;2023-01-28T10:35:53;98227.53;;;0.36;100.00
23616;BME280;11985;49.404;7.734;2023-01-28T10:40:59;98228.94;;;0.40;100.00
23616;BME280;11985;49.404;7.734;2023-01-28T10:46:05;98228.13;;;0.28;100.00
23616;BME280;11985;49.404;7.734;2023-01-28T10:51:08;98233.75;;;0.33;100.00
23616;BME280;11985;49.404;7.734;2023-01-28T10:56:13;98230.34;;;0.21;100.00
23616;BME280;11985;49.404;7.734;2023-01-28T11:01:15;98235.88;;;0.17;100.00
23616;BME280;11985;49.404;7.734;2023-01-28T11:06:23;98246.69;;;0.22;100.00
23616;BME280;11985;49.404;7.734;2023-01-28T11:11:27;98238.00;;;0.23;100.00
23616;BME280;11985;49.404;7.734;2023-01-28T11:16:29;98240.97;;;0.41;100.00
23616;BME280;11985;49.404;7.734;2023-01-28T11:21:33;98230.94;;;0.47;100.00
23616;BME280;11985;49.404;7.734;2023-01-28T11:26:38;98233.19;;;0.41;100.00
23616;BME280;11985;49.404;7.734;2023-01-28T11:31:42;98236.81;;;0.38;100.00
23616;BME280;11985;49.404;7.734;2023-01-28T11:36:49;98240.69;;;0.21;100.00
23616;BME280;11985;49.404;7.734;2023-01-28T11:41:53;98236.34;;;0.22;100.00
23616;BME280;11985;49.404;7.734;2023-01-28T11:47:13;98231.16;;;0.22;100.00
23616;BME280;11985;49.404;7.734;2023-01-28T11:52:20;98230.34;;;0.21;100.00
23616;BME280;11985;49.404;7.734;2023-01-28T11:57:33;98227.19;;;0.29;100.00
23616;BME280;11985;49.404;7.734;2023-01-28T12:02:47;98226.22;;;0.41;100.00
23616;BME280;11985;49.404;7.734;2023-01-28T12:07:52;98215.59;;;0.44;100.00
23616;BME280;11985;49.404;7.734;2023-01-28T12:13:07;98216.69;;;0.19;100.00
23616;BME280;11985;49.404;7.734;2023-01-28T12:18:22;98215.38;;;0.25;100.00
23616;BME280;11985;49.404;7.734;2023-01-28T12:23:37;98214.91;;;0.31;100.00
23616;BME280;11985;49.404;7.734;2023-01-28T12:29:00;98208.56;;;0.24;100.00
23616;BME280;11985;49.404;7.734;2023-01-28T12:34:34;98202.78;;;0.20;100.00
23616;BME280;11985;49.404;7.734;2023-01-28T12:39:44;98204.22;;;0.24;100.00
23616;BME280;11985;49.404;7.734;2023-01-28T12:44:58;98205.50;;;0.30;100.00
23616;BME280;11985;49.404;7.734;2023-01-28T12:50:09;98203.84;;;0.40;100.00
23616;BME280;11985;49.404;7.734;2023-01-28T12:55:14;98203.72;;;0.31;100.00
23616;BME280;11985;49.404;7.734;2023-01-28T13:00:24;98202.91;;;0.30;100.00
23616;BME280;11985;49.404;7.734;2023-01-28T13:05:32;98195.00;;;0.32;100.00
23616;BME280;11985;49.404;7.734;2023-01-28T13:10:40;98192.41;;;0.43;100.00
23616;BME280;11985;49.404;7.734;2023-01-28T13:15:44;98195.59;;;0.35;100.00
23616;BME280;11985;49.404;7.734;2023-01-28T13:20:48;98205.50;;;0.41;100.00
23616;BME280;11985;49.404;7.734;2023-01-28T13:25:52;98207.84;;;0.44;100.00
23616;BME280;11985;49.404;7.734;2023-01-28T13:31:02;98207.59;;;0.47;100.00
23616;BME280;11985;49.404;7.734;2023-01-28T13:36:17;98216.81;;;0.40;100.00
23616;BME280;11985;49.404;7.734;2023-01-28T13:41:21;98226.69;;;0.35;100.00
23616;BME280;11985;49.404;7.734;2023-01-28T13:46:28;98231.28;;;0.32;100.00
23616;BME280;11985;49.404;7.734;2023-01-28T13:51:32;98239.19;;;0.30;100.00
23616;BME280;11985;49.404;7.734;2023-01-28T13:56:40;98243.19;;;0.34;100.00
23616;BME280;11985;49.404;7.734;2023-01-28T14:01:54;98245.06;;;0.21;100.00
23616;BME280;11985;49.404;7.734;2023-01-28T14:07:12;98260.38;;;0.24;100.00
23616;BME280;11985;49.404;7.734;2023-01-28T14:12:32;98266.88;;;0.41;100.00
23616;BME280;11985;49.404;7.734;2023-01-28T14:17:43;98268.75;;;0.39;100.00
23616;BME280;11985;49.404;7.734;2023-01-28T14:22:47;98265.44;;;0.25;100.00
23616;BME280;11985;49.404;7.734;2023-01-28T14:27:52;98276.63;;;0.15;100.00
23616;BME280;11985;49.404;7.734;2023-01-28T14:32:55;98276.38;;;0.07;100.00
23616;BME280;11985;49.404;7.734;2023-01-28T14:37:58;98277.50;;;-0.09;100.00
23616;BME280;11985;49.404;7.734;2023-01-28T14:43:01;98275.03;;;-0.21;100.00
23616;BME280;11985;49.404;7.734;2023-01-28T14:48:20;98293.47;;;-0.26;100.00
23616;BME280;11985;49.404;7.734;2023-01-28T14:53:43;98279.09;;;-0.30;100.00
23616;BME280;11985;49.404;7.734;2023-01-28T14:58:51;98281.31;;;-0.37;100.00
23616;BME280;11985;49.404;7.734;2023-01-28T15:03:56;98277.41;;;-0.42;100.00
23616;BME280;11985;49.404;7.734;2023-01-28T15:09:05;98279.06;;;-0.41;100.00
23616;BME280;11985;49.404;7.734;2023-01-28T15:14:12;98284.56;;;-0.22;100.00
23616;BME280;11985;49.404;7.734;2023-01-28T15:19:21;98282.22;;;-0.14;100.00
23616;BME280;11985;49.404;7.734;2023-01-28T15:24:25;98291.59;;;-0.24;100.00
23616;BME280;11985;49.404;7.734;2023-01-28T15:29:31;98273.31;;;-0.34;100.00
23616;BME280;11985;49.404;7.734;2023-01-28T15:34:34;98269.06;;;-0.35;100.00
23616;BME280;11985;49.404;7.734;2023-01-28T15:39:37;98269.69;;;-0.31;100.00
23616;BME280;11985;49.404;7.734;2023-01-28T15:44:44;98268.63;;;-0.29;100.00
23616;BME280;11985;49.404;7.734;2023-01-28T15:49:51;98273.22;;;-0.32;100.00
23616;BME280;11985;49.404;7.734;2023-01-28T15:54:54;98278.03;;;-0.39;100.00
23616;BME280;11985;49.404;7.734;2023-01-28T16:00:08;98285.22;;;-0.31;100.00
23616;BME280;11985;49.404;7.734;2023-01-28T16:05:25;98291.28;;;-0.08;100.00
23616;BME280;11985;49.404;7.734;2023-01-28T16:10:28;98294.47;;;-0.05;100.00
23616;BME280;11985;49.404;7.734;2023-01-28T16:15:31;98289.28;;;-0.16;100.00
23616;BME280;11985;49.404;7.734;2023-01-28T16:20:34;98297.00;;;-0.27;100.00
23616;BME280;11985;49.404;7.734;2023-01-28T16:25:35;98291.88;;;-0.40;100.00
23616;BME280;11985;49.404;7.734;2023-01-28T16:30:37;98312.59;;;-0.40;100.00
23616;BME280;11985;49.404;7.734;2023-01-28T16:35:40;98313.59;;;-0.54;100.00
23616;BME280;11985;49.404;7.734;2023-01-28T16:40:42;98315.94;;;-0.50;100.00
23616;BME280;11985;49.404;7.734;2023-01-28T16:45:44;98315.94;;;-0.50;100.00
23616;BME280;11985;49.404;7.734;2023-01-28T16:50:47;98315.44;;;-0.56;100.00
23616;BME280;11985;49.404;7.734;2023-01-28T16:55:49;98321.84;;;-0.48;100.00
23616;BME280;11985;49.404;7.734;2023-01-28T17:00:51;98322.56;;;-0.46;100.00
23616;BME280;11985;49.404;7.734;2023-01-28T17:05:54;98323.38;;;-0.46;100.00
23616;BME280;11985;49.404;7.734;2023-01-28T17:10:56;98342.06;;;-0.54;100.00
23616;BME280;11985;49.404;7.734;2023-01-28T17:16:00;98331.78;;;-0.66;100.00
23616;BME280;11985;49.404;7.734;2023-01-28T17:21:04;98333.63;;;-0.68;100.00
23616;BME280;11985;49.404;7.734;2023-01-28T17:26:09;98350.00;;;-0.81;100.00
23616;BME280;11985;49.404;7.734;2023-01-28T17:31:13;98348.78;;;-0.88;100.00
23616;BME280;11985;49.404;7.734;2023-01-28T17:36:16;98357.81;;;-0.93;100.00
23616;BME280;11985;49.404;7.734;2023-01-28T17:41:18;98345.38;;;-0.88;100.00
23616;BME280;11985;49.404;7.734;2023-01-28T17:46:21;98359.53;;;-0.81;100.00
23616;BME280;11985;49.404;7.734;2023-01-28T17:51:24;98364.06;;;-0.72;100.00
23616;BME280;11985;49.404;7.734;2023-01-28T17:56:27;98376.22;;;-0.61;100.00
23616;BME280;11985;49.404;7.734;2023-01-28T18:01:30;98379.81;;;-0.51;100.00
23616;BME280;11985;49.404;7.734;2023-01-28T18:06:33;98374.13;;;-0.56;100.00
23616;BME280;11985;49.404;7.734;2023-01-28T18:11:35;98372.16;;;-0.76;100.00
23616;BME280;11985;49.404;7.734;2023-01-28T18:16:37;98377.25;;;-1.00;100.00
23616;BME280;11985;49.404;7.734;2023-01-28T18:21:42;98374.69;;;-1.13;100.00
23616;BME280;11985;49.404;7.734;2023-01-28T18:26:43;98379.75;;;-1.12;100.00
23616;BME280;11985;49.404;7.734;2023-01-28T18:31:45;98392.06;;;-1.02;100.00
23616;BME280;11985;49.404;7.734;2023-01-28T18:36:49;98386.38;;;-1.08;100.00
23616;BME280;11985;49.404;7.734;2023-01-28T18:41:51;98396.59;;;-1.06;100.00
23616;BME280;11985;49.404;7.734;2023-01-28T18:46:52;98400.44;;;-1.12;100.00
23616;BME280;11985;49.404;7.734;2023-01-28T18:51:55;98389.50;;;-1.15;100.00
23616;BME280;11985;49.404;7.734;2023-01-28T18:56:58;98399.28;;;-1.08;100.00
23616;BME280;11985;49.404;7.734;2023-01-28T19:02:00;98409.53;;;-0.93;100.00
23616;BME280;11985;49.404;7.734;2023-01-28T19:07:03;98413.31;;;-0.73;100.00
23616;BME280;11985;49.404;7.734;2023-01-28T19:12:05;98429.56;;;-0.84;98.12
23616;BME280;11985;49.404;7.734;2023-01-28T19:17:06;98425.03;;;-0.93;98.57
23616;BME280;11985;49.404;7.734;2023-01-28T19:22:09;98427.53;;;-1.04;98.84
23616;BME280;11985;49.404;7.734;2023-01-28T19:27:10;98438.59;;;-1.15;99.21
23616;BME280;11985;49.404;7.734;2023-01-28T19:32:12;98427.97;;;-1.11;100.00
23616;BME280;11985;49.404;7.734;2023-01-28T19:37:15;98432.28;;;-1.11;99.84
23616;BME280;11985;49.404;7.734;2023-01-28T19:42:16;98431.78;;;-1.03;99.43
23616;BME280;11985;49.404;7.734;2023-01-28T19:47:18;98446.47;;;-1.04;99.32
23616;BME280;11985;49.404;7.734;2023-01-28T19:52:21;98436.53;;;-1.10;99.37
23616;BME280;11985;49.404;7.734;2023-01-28T19:57:22;98443.75;;;-1.02;100.00
23616;BME280;11985;49.404;7.734;2023-01-28T20:02:24;98464.44;;;-0.90;98.57
23616;BME280;11985;49.404;7.734;2023-01-28T20:07:28;98452.34;;;-0.76;99.43
23616;BME280;11985;49.404;7.734;2023-01-28T20:12:29;98452.50;;;-0.67;98.56
23616;BME280;11985;49.404;7.734;2023-01-28T20:17:31;98454.63;;;-0.72;98.24
23616;BME280;11985;49.404;7.734;2023-01-28T20:22:34;98437.97;;;-0.81;97.46
23616;BME280;11985;49.404;7.734;2023-01-28T20:27:38;98437.97;;;-0.81;97.06
23616;BME280;11985;49.404;7.734;2023-01-28T20:32:39;98450.59;;;-0.89;96.77
23616;BME280;11985;49.404;7.734;2023-01-28T20:37:42;98441.50;;;-0.94;97.24
23616;BME280;11985;49.404;7.734;2023-01-28T20:42:44;98459.09;;;-0.99;98.38
23616;BME280;11985;49.404;7.734;2023-01-28T20:47:46;98466.63;;;-0.96;98.86
23616;BME280;11985;49.404;7.734;2023-01-28T20:52:50;98471.19;;;-1.00;97.96
23616;BME280;11985;49.404;7.734;2023-01-28T20:57:51;98468.59;;;-0.87;97.68
23616;BME280;11985;49.404;7.734;2023-01-28T21:02:53;98470.13;;;-0.72;97.38
23616;BME280;11985;49.404;7.734;2023-01-28T21:07:56;98474.66;;;-0.63;96.86
23616;BME280;11985;49.404;7.734;2023-01-28T21:12:58;98484.31;;;-0.77;94.75
23616;BME280;11985;49.404;7.734;2023-01-28T21:17:59;98489.28;;;-0.87;94.30
23616;BME280;11985;49.404;7.734;2023-01-28T21:23:02;98487.13;;;-0.93;94.80
23616;BME280;11985;49.404;7.734;2023-01-28T21:28:04;98488.75;;;-0.92;95.75
23616;BME280;11985;49.404;7.734;2023-01-28T21:33:05;98486.88;;;-0.90;95.28
23616;BME280;11985;49.404;7.734;2023-01-28T21:38:09;98491.25;;;-0.91;95.03
23616;BME280;11985;49.404;7.734;2023-01-28T21:43:10;98482.78;;;-0.93;94.93
23616;BME280;11985;49.404;7.734;2023-01-28T21:48:12;98478.53;;;-0.94;94.31
23616;BME280;11985;49.404;7.734;2023-01-28T21:53:15;98467.56;;;-0.97;93.63
23616;BME280;11985;49.404;7.734;2023-01-28T21:58:17;98465.25;;;-0.89;93.78
23616;BME280;11985;49.404;7.734;2023-01-28T22:03:36;98473.44;;;-0.70;93.98
23616;BME280;11985;49.404;7.734;2023-01-28T22:08:39;98453.66;;;-0.58;92.88
23616;BME280;11985;49.404;7.734;2023-01-28T22:13:40;98453.44;;;-0.68;92.04
23616;BME280;11985;49.404;7.734;2023-01-28T22:18:42;98443.56;;;-0.87;91.26
23616;BME280;11985;49.404;7.734;2023-01-28T22:23:47;98449.16;;;-0.93;92.41
23616;BME280;11985;49.404;7.734;2023-01-28T22:28:49;98463.22;;;-0.97;93.86
23616;BME280;11985;49.404;7.734;2023-01-28T22:33:50;98436.72;;;-1.00;93.65
23616;BME280;11985;49.404;7.734;2023-01-28T22:38:53;98437.56;;;-1.00;93.02
23616;BME280;11985;49.404;7.734;2023-01-28T22:43:55;98427.22;;;-1.13;92.16
23616;BME280;11985;49.404;7.734;2023-01-28T22:48:56;98412.53;;;-1.25;92.83
23616;BME280;11985;49.404;7.734;2023-01-28T22:54:00;98420.41;;;-1.26;93.02
23616;BME280;11985;49.404;7.734;2023-01-28T22:59:02;98423.28;;;-1.31;93.88
23616;BME280;11985;49.404;7.734;2023-01-28T23:04:04;98419.59;;;-1.27;94.90
23616;BME280;11985;49.404;7.734;2023-01-28T23:09:07;98426.81;;;-1.32;93.78
23616;BME280;11985;49.404;7.734;2023-01-28T23:14:09;98421.84;;;-1.35;94.52
23616;BME280;11985;49.404;7.734;2023-01-28T23:19:28;98436.53;;;-1.36;94.19
23616;BME280;11985;49.404;7.734;2023-01-28T23:24:49;98440.88;;;-1.36;95.20
23616;BME280;11985;49.404;7.734;2023-01-28T23:29:50;98425.56;;;-1.39;95.74
23616;BME280;11985;49.404;7.734;2023-01-28T23:34:52;98439.63;;;-1.43;96.36
23616;BME280;11985;49.404;7.734;2023-01-28T23:39:55;98435.38;;;-1.44;95.87
23616;BME280;11985;49.404;7.734;2023-01-28T23:44:56;98425.34;;;-1.49;94.94
23616;BME280;11985;49.404;7.734;2023-01-28T23:49:59;98422.66;;;-1.47;95.17
23616;BME280;11985;49.404;7.734;2023-01-28T23:55:03;98423.06;;;-1.53;94.64
